Time;durP1;ratioP1;P1;durP2;ratioP2;P2;SDS_P1;SDS_P2;PMS_P1;PMS_P2;Temp;Humidity;BMP_temperature;BMP_pressure;BME280_temperature;BME280_humidity;BME280_pressure;Samples;Min_cycle;Max_cycle;Signal;HPM_P1;HPM_P2
2021/11/23 00:00:39;;;;;;;5.95;2.65;;;0.80;1.00;;;;;;5014967;28;20279;-75
2021/11/23 00:03:08;;;;;;;2.92;2.28;;;0.80;1.00;;;;;;5015528;28;20173;-74
2021/11/23 00:05:34;;;;;;;3.35;2.72;;;0.80;1.00;;;;;;5012262;28;20285;-75
2021/11/23 00:08:00;;;;;;;2.73;2.53;;;0.80;1.00;;;;;;5007195;28;20227;-75
2021/11/23 00:10:26;;;;;;;3.30;2.72;;;;;;;;;;5015228;28;20442;-74
2021/11/23 00:12:52;;;;;;;7.05;2.85;;;0.70;1.00;;;;;;5015555;28;20225;-74
2021/11/23 00:15:18;;;;;;;3.00;2.73;;;;;;;;;;5015206;28;20268;-74
2021/11/23 00:17:50;;;;;;;3.10;2.80;;;0.70;1.00;;;;;;5015474;28;20646;-74
2021/11/23 00:20:15;;;;;;;3.83;2.90;;;0.70;1.00;;;;;;5014876;28;20201;-74
2021/11/23 00:22:44;;;;;;;3.20;2.90;;;0.70;1.00;;;;;;5015068;28;20197;-74
2021/11/23 00:25:10;;;;;;;3.03;2.72;;;0.60;1.00;;;;;;5015194;28;20185;-74
2021/11/23 00:27:38;;;;;;;7.60;3.50;;;0.60;1.00;;;;;;5002855;28;20203;-74
2021/11/23 00:30:04;;;;;;;2.45;2.22;;;0.60;1.00;;;;;;5001659;28;20639;-75
2021/11/23 00:32:32;;;;;;;4.07;3.05;;;0.60;1.00;;;;;;5002033;28;20228;-74
2021/11/23 00:34:57;;;;;;;4.95;3.00;;;0.60;1.00;;;;;;5005847;28;20181;-74
2021/11/23 00:37:23;;;;;;;4.00;3.10;;;0.60;1.00;;;;;;5014523;28;20678;-74
2021/11/23 00:39:50;;;;;;;2.75;2.55;;;;;;;;;;5001832;28;20183;-74
2021/11/23 00:42:20;;;;;;;4.65;3.08;;;0.60;1.00;;;;;;5015405;28;20227;-75
2021/11/23 00:44:45;;;;;;;2.85;2.58;;;0.60;1.00;;;;;;5014391;28;20637;-75
2021/11/23 00:47:14;;;;;;;2.60;2.40;;;0.60;1.00;;;;;;5014179;28;20181;-75
2021/11/23 00:49:56;;;;;;;3.00;2.17;;;0.50;1.00;;;;;;5013458;28;20512;-75
2021/11/23 00:52:21;;;;;;;3.65;2.17;;;0.50;1.00;;;;;;5010760;28;20185;-74
2021/11/23 00:54:47;;;;;;;5.00;3.10;;;0.50;1.00;;;;;;5014291;28;20191;-75
2021/11/23 00:57:13;;;;;;;3.53;3.20;;;0.50;1.00;;;;;;5014742;28;20185;-74
2021/11/23 00:59:44;;;;;;;2.80;2.53;;;0.50;1.00;;;;;;5006202;28;20174;-75
2021/11/23 01:02:20;;;;;;;4.85;2.80;;;0.50;1.00;;;;;;5014530;28;20883;-74
2021/11/23 01:04:46;;;;;;;4.05;3.25;;;0.50;1.00;;;;;;5013321;28;20173;-74
2021/11/23 01:07:12;;;;;;;3.23;2.93;;;0.50;1.00;;;;;;5008395;28;20173;-74
2021/11/23 01:09:38;;;;;;;6.70;3.30;;;0.40;1.00;;;;;;5001941;28;20506;-74
2021/11/23 01:12:20;;;;;;;6.60;2.90;;;0.40;1.00;;;;;;5026814;28;20431;-74
2021/11/23 01:14:56;;;;;;;3.47;2.75;;;0.40;1.00;;;;;;5005895;28;20366;-74
2021/11/23 01:17:26;;;;;;;4.25;2.70;;;0.40;1.00;;;;;;5007080;28;20178;-74
2021/11/23 01:19:56;;;;;;;3.30;2.95;;;0.40;1.00;;;;;;5010888;28;20234;-74
2021/11/23 01:22:22;;;;;;;2.83;2.58;;;0.40;1.00;;;;;;5014315;28;20849;-75
2021/11/23 01:24:50;;;;;;;5.55;2.65;;;0.40;1.00;;;;;;5013095;28;20177;-74
2021/11/23 01:27:15;;;;;;;2.97;2.70;;;0.40;1.00;;;;;;5014371;28;20201;-74
2021/11/23 01:29:42;;;;;;;3.80;2.60;;;0.40;1.00;;;;;;5013220;28;20282;-74
2021/11/23 01:32:08;;;;;;;3.28;2.90;;;0.50;1.00;;;;;;5012835;28;20184;-75
2021/11/23 01:34:38;;;;;;;2.80;2.60;;;0.50;1.00;;;;;;5013531;28;20177;-74
2021/11/23 01:37:14;;;;;;;6.10;2.80;;;0.40;1.00;;;;;;5014230;28;20462;-74
2021/11/23 01:39:40;;;;;;;2.78;2.58;;;0.40;1.00;;;;;;5013788;28;20176;-74
2021/11/23 01:42:08;;;;;;;5.83;2.90;;;0.40;1.00;;;;;;5014437;28;20212;-74
2021/11/23 01:44:38;;;;;;;3.83;3.20;;;0.40;1.00;;;;;;5013770;28;20176;-74
2021/11/23 01:47:08;;;;;;;8.60;3.03;;;0.40;1.00;;;;;;5013775;28;20187;-74
2021/11/23 01:49:34;;;;;;;3.88;2.92;;;0.40;1.00;;;;;;5014108;28;20695;-74
2021/11/23 01:52:08;;;;;;;3.90;2.50;;;0.40;1.00;;;;;;5013702;28;20177;-74
2021/11/23 01:54:38;;;;;;;4.68;3.00;;;0.30;1.00;;;;;;5002896;28;20454;-74
2021/11/23 01:57:08;;;;;;;7.78;3.17;;;0.30;1.00;;;;;;5032451;28;20214;-74
2021/11/23 01:59:38;;;;;;;5.40;2.92;;;0.30;1.00;;;;;;5003763;28;20173;-74
2021/11/23 02:02:08;;;;;;;2.90;2.70;;;0.30;1.00;;;;;;5000517;28;20189;-74
2021/11/23 02:04:45;;;;;;;5.97;2.95;;;0.30;1.00;;;;;;5007550;28;20165;-74
2021/11/23 02:07:16;;;;;;;4.28;3.03;;;0.20;1.00;;;;;;5013944;28;20260;-74
2021/11/23 02:10:01;;;;;;;4.03;3.20;;;;;;;;;;5013984;28;20628;-74
2021/11/23 02:12:34;;;;;;;3.80;2.63;;;0.20;1.00;;;;;;5013955;28;20177;-74
2021/11/23 02:15:05;;;;;;;6.93;2.50;;;0.10;1.00;;;;;;5013963;28;20181;-74
2021/11/23 02:17:39;;;;;;;3.55;3.25;;;;;;;;;;5011473;28;20181;-75
2021/11/23 02:20:14;;;;;;;3.55;2.72;;;0.10;1.00;;;;;;5013039;28;20528;-75
2021/11/23 02:22:40;;;;;;;3.50;2.72;;;0.00;1.00;;;;;;5013700;28;20180;-74
2021/11/23 02:25:09;;;;;;;5.10;2.80;;;0.00;1.00;;;;;;5013471;28;20173;-74
2021/11/23 02:27:39;;;;;;;2.83;2.60;;;0.00;1.00;;;;;;5004523;28;20951;-75
2021/11/23 02:30:06;;;;;;;3.67;3.10;;;0.00;1.00;;;;;;5013590;28;20201;-75
2021/11/23 02:32:43;;;;;;;3.20;2.90;;;-0.10;1.00;;;;;;5013789;28;20256;-74
2021/11/23 02:35:23;;;;;;;4.70;3.10;;;-0.10;1.00;;;;;;5007462;28;20648;-74
2021/11/23 02:37:54;;;;;;;3.75;2.78;;;-0.10;1.00;;;;;;5013318;28;20542;-75
2021/11/23 02:40:38;;;;;;;4.05;3.45;;;-0.20;1.00;;;;;;5013556;28;20193;-75
2021/11/23 02:43:08;;;;;;;8.50;2.65;;;-0.20;1.00;;;;;;5000627;28;20646;-74
2021/11/23 02:45:38;;;;;;;6.80;3.10;;;-0.20;1.00;;;;;;5013647;28;20176;-74
2021/11/23 02:48:10;;;;;;;11.82;3.20;;;-0.30;1.00;;;;;;5016422;28;20177;-74
2021/11/23 02:50:37;;;;;;;3.13;2.83;;;-0.30;1.00;;;;;;5016990;28;20185;-74
2021/11/23 02:53:03;;;;;;;3.28;2.95;;;-0.30;1.00;;;;;;5016702;28;20176;-74
2021/11/23 02:55:35;;;;;;;3.03;2.65;;;-0.40;1.00;;;;;;5016963;28;20517;-74
2021/11/23 02:58:14;;;;;;;2.80;2.53;;;-0.40;1.00;;;;;;5016871;28;20173;-75
2021/11/23 03:01:01;;;;;;;4.30;2.53;;;-0.40;1.00;;;;;;5016811;28;20200;-74
2021/11/23 03:03:38;;;;;;;3.50;2.70;;;-0.40;1.00;;;;;;5016734;28;20499;-74
2021/11/23 03:06:12;;;;;;;2.80;2.50;;;-0.40;1.00;;;;;;5015524;28;20574;-74
2021/11/23 03:08:45;;;;;;;3.08;2.70;;;-0.50;1.00;;;;;;5016494;28;20191;-74
2021/11/23 03:11:12;;;;;;;2.78;2.55;;;-0.50;1.00;;;;;;5016707;28;20180;-74
2021/11/23 03:13:44;;;;;;;2.65;2.45;;;-0.50;1.00;;;;;;5017045;28;20173;-74
2021/11/23 03:16:26;;;;;;;5.90;2.80;;;-0.60;1.00;;;;;;5013890;28;20586;-75
2021/11/23 03:19:02;;;;;;;4.95;2.75;;;-0.70;1.00;;;;;;5010673;28;20183;-75
2021/11/23 03:21:32;;;;;;;3.25;2.40;;;-0.70;1.00;;;;;;5016379;28;20232;-74
2021/11/23 03:23:58;;;;;;;2.97;2.35;;;-0.70;1.00;;;;;;5015202;28;20173;-74
2021/11/23 03:26:26;;;;;;;2.60;2.40;;;-0.80;1.00;;;;;;5015951;28;20248;-75
2021/11/23 03:28:51;;;;;;;4.00;2.70;;;-0.80;1.00;;;;;;5016391;28;20181;-74
2021/11/23 03:31:17;;;;;;;4.83;3.27;;;-0.80;1.00;;;;;;5016226;28;20183;-74
2021/11/23 03:33:43;;;;;;;3.23;2.90;;;-0.80;1.00;;;;;;5016410;28;20500;-74
2021/11/23 03:36:33;;;;;;;2.80;2.60;;;-0.80;1.00;;;;;;5015914;28;20215;-74
2021/11/23 03:38:59;;;;;;;3.85;3.13;;;-0.80;1.00;;;;;;5009913;28;20284;-74
2021/11/23 03:41:24;;;;;;;8.47;3.13;;;-0.80;1.00;;;;;;5016062;28;20573;-75
2021/11/23 03:43:56;;;;;;;3.30;3.00;;;-0.90;1.00;;;;;;5016561;28;20177;-74
2021/11/23 03:46:22;;;;;;;3.00;2.80;;;-0.80;1.00;;;;;;5015501;28;20195;-74
2021/11/23 03:48:48;;;;;;;3.80;3.17;;;;;;;;;;5016060;28;20264;-74
2021/11/23 03:51:14;;;;;;;5.00;2.97;;;-0.80;1.00;;;;;;5015244;28;20900;-74
2021/11/23 03:53:40;;;;;;;3.38;2.80;;;;;;;;;;5015883;28;20181;-74
2021/11/23 03:56:08;;;;;;;5.07;2.80;;;-0.90;1.00;;;;;;5008850;28;20177;-74
2021/11/23 03:58:38;;;;;;;4.20;3.00;;;;;;;;;;5009775;28;20172;-74
2021/11/23 04:01:09;;;;;;;5.75;2.90;;;-0.90;1.00;;;;;;5015798;28;20683;-74
2021/11/23 04:03:38;;;;;;;3.58;3.25;;;;;;;;;;5015617;28;20177;-74
2021/11/23 04:06:05;;;;;;;3.03;2.65;;;-1.00;1.00;;;;;;5015705;28;20181;-74
2021/11/23 04:08:33;;;;;;;3.70;2.80;;;;;;;;;;5015570;28;20181;-74
2021/11/23 04:11:02;;;;;;;3.75;2.35;;;-1.00;1.00;;;;;;5015453;28;20181;-74
2021/11/23 04:13:32;;;;;;;3.60;3.22;;;-1.00;1.00;;;;;;5015694;28;20736;-74
2021/11/23 04:16:02;;;;;;;7.78;3.33;;;-1.00;1.00;;;;;;5014827;28;20249;-74
2021/11/23 04:18:32;;;;;;;6.43;3.95;;;-1.10;1.00;;;;;;5006447;28;20181;-74
2021/11/23 04:20:57;;;;;;;9.43;3.22;;;-1.10;1.00;;;;;;5013988;28;20196;-74
2021/11/23 04:23:32;;;;;;;3.20;2.90;;;-1.10;1.00;;;;;;5015190;28;20630;-74
2021/11/23 04:26:08;;;;;;;5.32;3.72;;;-1.10;1.00;;;;;;5015429;28;20243;-75
2021/11/23 04:28:34;;;;;;;4.32;3.70;;;-1.10;1.00;;;;;;5013358;28;20694;-74
2021/11/23 04:31:02;;;;;;;5.20;3.33;;;-1.20;1.00;;;;;;5015416;28;20212;-74
2021/11/23 04:33:29;;;;;;;3.63;3.22;;;;;;;;;;5014742;28;20173;-75
2021/11/23 04:35:54;;;;;;;4.80;3.10;;;-1.20;1.00;;;;;;5014961;28;20655;-75
2021/11/23 04:38:32;;;;;;;4.70;3.60;;;-1.20;1.00;;;;;;5014865;28;20177;-74
2021/11/23 04:41:02;;;;;;;3.97;3.22;;;-1.20;1.00;;;;;;5015121;28;20221;-74
2021/11/23 04:43:32;;;;;;;5.05;3.60;;;;;;;;;;5015207;28;20260;-74
2021/11/23 04:46:02;;;;;;;4.82;3.60;;;-1.10;1.00;;;;;;5011334;28;20595;-75
2021/11/23 04:48:28;;;;;;;5.72;3.58;;;-1.10;1.00;;;;;;5015212;28;20180;-74
2021/11/23 04:50:55;;;;;;;5.53;3.57;;;-1.10;1.00;;;;;;5015030;28;20166;-74
2021/11/23 04:53:33;;;;;;;5.38;3.65;;;-1.10;1.00;;;;;;5014482;28;20531;-74
2021/11/23 04:55:59;;;;;;;5.43;3.75;;;;;;;;;;5014414;28;20172;-74
2021/11/23 04:58:26;;;;;;;10.20;3.55;;;-1.10;1.00;;;;;;5015152;28;20177;-74
2021/11/23 05:00:52;;;;;;;12.55;3.45;;;-1.10;1.00;;;;;;5014611;28;20283;-74
2021/11/23 05:03:20;;;;;;;7.70;3.97;;;-1.10;1.00;;;;;;5014461;28;20204;-75
2021/11/23 05:05:50;;;;;;;7.65;3.88;;;-1.10;1.00;;;;;;5013561;28;20914;-75
2021/11/23 05:08:20;;;;;;;8.30;3.72;;;-1.20;1.00;;;;;;5014398;28;20169;-74
2021/11/23 05:10:46;;;;;;;3.35;3.03;;;-1.20;1.00;;;;;;5013884;28;20499;-75
2021/11/23 05:13:12;;;;;;;5.07;3.63;;;;;;;;;;5014792;28;20173;-74
2021/11/23 05:15:38;;;;;;;6.35;3.50;;;-1.20;1.00;;;;;;5013985;28;20180;-74
2021/11/23 05:18:04;;;;;;;4.65;3.13;;;-1.20;1.00;;;;;;5005893;28;20181;-74
2021/11/23 05:20:30;;;;;;;6.97;3.77;;;-1.20;1.00;;;;;;5013320;28;20189;-75
2021/11/23 05:22:55;;;;;;;6.80;3.97;;;-1.20;1.00;;;;;;5014007;28;20169;-74
2021/11/23 05:25:22;;;;;;;7.90;3.97;;;-1.20;1.00;;;;;;5014077;28;20511;-74
2021/11/23 05:27:51;;;;;;;7.43;3.78;;;-1.20;1.00;;;;;;5014684;28;20169;-74
2021/11/23 05:30:16;;;;;;;6.97;3.92;;;-1.20;1.00;;;;;;5013785;28;20193;-74
2021/11/23 05:32:45;;;;;;;5.37;4.43;;;-1.30;1.00;;;;;;5014134;28;20227;-74
2021/11/23 05:35:12;;;;;;;5.30;4.18;;;-1.20;1.00;;;;;;5014239;28;20173;-74
2021/11/23 05:37:38;;;;;;;4.70;4.13;;;;;;;;;;5013904;28;20207;-74
2021/11/23 05:40:05;;;;;;;7.68;4.50;;;-1.30;1.00;;;;;;5014115;28;20165;-74
2021/11/23 05:42:32;;;;;;;8.52;5.05;;;-1.30;1.00;;;;;;5013678;28;20216;-74
2021/11/23 05:44:59;;;;;;;8.40;4.88;;;-1.20;1.00;;;;;;5011582;28;20224;-74
2021/11/23 05:47:25;;;;;;;6.75;3.90;;;-1.20;1.00;;;;;;5011800;28;20181;-74
2021/11/23 05:50:05;;;;;;;8.15;4.20;;;-1.20;1.00;;;;;;5014558;28;20207;-75
2021/11/23 05:52:32;;;;;;;6.03;4.72;;;-1.20;1.00;;;;;;5013588;28;20173;-76
2021/11/23 05:54:58;;;;;;;10.18;5.07;;;-1.20;1.00;;;;;;5013712;28;20169;-74
2021/11/23 05:57:24;;;;;;;5.97;4.40;;;-1.20;1.00;;;;;;5013707;28;20643;-75
2021/11/23 05:59:49;;;;;;;8.00;5.07;;;-1.20;1.00;;;;;;5013457;28;20415;-76
2021/11/23 06:02:26;;;;;;;7.53;4.90;;;-1.20;1.00;;;;;;5013061;28;20693;-77
2021/11/23 06:05:03;;;;;;;6.68;4.50;;;-1.30;1.00;;;;;;5004766;28;20252;-76
2021/11/23 06:07:29;;;;;;;6.25;4.50;;;-1.30;1.00;;;;;;5009736;28;20173;-75
2021/11/23 06:09:55;;;;;;;7.38;4.68;;;;;;;;;;5009601;28;20511;-74
2021/11/23 06:12:21;;;;;;;5.85;4.60;;;-1.20;1.00;;;;;;5013600;28;20533;-74
2021/11/23 06:14:50;;;;;;;9.07;5.05;;;-1.20;1.00;;;;;;5012780;28;20228;-74
2021/11/23 06:17:21;;;;;;;6.78;4.90;;;-1.20;1.00;;;;;;5013759;28;20684;-74
2021/11/23 06:19:46;;;;;;;8.07;5.05;;;-1.20;1.00;;;;;;5013831;28;20158;-74
2021/11/23 06:22:13;;;;;;;7.90;5.33;;;;;;;;;;5011784;28;20220;-75
2021/11/23 06:24:38;;;;;;;8.32;4.80;;;-1.30;1.00;;;;;;5017253;28;20420;-75
2021/11/23 06:27:15;;;;;;;8.53;5.17;;;-1.20;1.00;;;;;;5015897;28;20173;-75
2021/11/23 06:29:40;;;;;;;10.43;5.45;;;-1.20;1.00;;;;;;5017668;28;20439;-74
2021/11/23 06:32:08;;;;;;;10.43;4.90;;;-1.20;1.00;;;;;;5017425;28;20624;-74
2021/11/23 06:34:34;;;;;;;6.95;4.70;;;-1.20;1.00;;;;;;5015254;28;20251;-74
2021/11/23 06:37:01;;;;;;;7.30;5.13;;;;;;;;;;5007822;28;20296;-74
2021/11/23 06:39:28;;;;;;;7.80;5.22;;;-1.30;1.00;;;;;;5013926;28;20180;-75
2021/11/23 06:42:01;;;;;;;5.43;4.60;;;-1.30;1.00;;;;;;5011717;28;20196;-76
2021/11/23 06:44:27;;;;;;;9.57;5.63;;;-1.30;1.00;;;;;;5008863;28;20183;-74
2021/11/23 06:46:52;;;;;;;7.47;5.35;;;-1.30;1.00;;;;;;5008897;28;20169;-75
2021/11/23 06:50:02;;;;;;;7.80;4.47;;;-1.30;1.00;;;;;;5015043;28;20231;-75
2021/11/23 06:52:38;;;;;;;7.38;4.40;;;-1.20;1.00;;;;;;5014301;28;20181;-75
2021/11/23 06:55:05;;;;;;;14.30;5.10;;;-1.30;1.00;;;;;;5016380;28;20239;-75
2021/11/23 06:57:32;;;;;;;11.52;4.85;;;-1.30;1.00;;;;;;5016928;28;20252;-74
2021/11/23 06:59:58;;;;;;;5.82;5.10;;;-1.30;1.00;;;;;;5016966;28;20181;-74
2021/11/23 07:02:32;;;;;;;9.30;5.10;;;-1.30;1.00;;;;;;5016818;28;20249;-74
2021/11/23 07:05:09;;;;;;;11.00;4.75;;;;;;;;;;5011276;28;20594;-74
2021/11/23 07:07:35;;;;;;;7.85;4.78;;;-1.20;1.00;;;;;;5016834;28;20255;-74
2021/11/23 07:10:13;;;;;;;7.10;5.17;;;-1.30;1.00;;;;;;4998483;28;20189;-74
2021/11/23 07:12:50;;;;;;;7.97;4.85;;;-1.20;1.00;;;;;;5002136;28;20183;-74
2021/11/23 07:15:20;;;;;;;8.40;5.00;;;-1.20;1.00;;;;;;5016803;28;20658;-74
2021/11/23 07:17:56;;;;;;;9.20;5.50;;;-1.20;1.00;;;;;;5016242;28;20184;-75
2021/11/23 07:20:22;;;;;;;11.25;4.80;;;-1.20;1.00;;;;;;5016541;28;20264;-74
2021/11/23 07:22:48;;;;;;;9.00;5.07;;;-1.20;1.00;;;;;;5016531;28;20307;-75
2021/11/23 07:25:44;;;;;;;6.63;5.00;;;-1.20;1.00;;;;;;5016154;28;20593;-76
2021/11/23 07:28:15;;;;;;;6.93;4.60;;;-1.10;1.00;;;;;;5016388;28;20173;-74
2021/11/23 07:30:57;;;;;;;6.90;4.55;;;-1.10;1.00;;;;;;5016667;28;20271;-74
2021/11/23 07:33:26;;;;;;;7.70;4.65;;;-1.00;1.00;;;;;;5014826;28;20263;-75
2021/11/23 07:36:02;;;;;;;6.07;4.38;;;-0.90;1.00;;;;;;5015608;28;20592;-75
2021/11/23 07:38:32;;;;;;;8.73;5.35;;;-0.90;1.00;;;;;;4999971;28;20208;-76
2021/11/23 07:40:58;;;;;;;5.18;4.68;;;-0.90;1.00;;;;;;5011520;28;20201;-73
2021/11/23 07:43:24;;;;;;;11.43;5.37;;;;;;;;;;5014189;28;20173;-73
2021/11/23 07:45:50;;;;;;;10.07;5.65;;;-0.80;1.00;;;;;;5014050;28;20181;-73
2021/11/23 07:48:44;;;;;;;7.70;4.70;;;-0.80;1.00;;;;;;5015956;28;20494;-74
2021/11/23 07:51:14;;;;;;;9.00;5.05;;;-0.70;1.00;;;;;;5016051;28;20185;-73
2021/11/23 07:53:44;;;;;;;8.63;5.18;;;-0.70;1.00;;;;;;4997252;28;20653;-73
2021/11/23 07:56:11;;;;;;;10.10;5.05;;;-0.60;1.00;;;;;;5015698;28;20197;-75
2021/11/23 07:58:37;;;;;;;6.93;4.93;;;-0.50;1.00;;;;;;5005586;28;20660;-73
2021/11/23 08:01:04;;;;;;;5.90;4.20;;;-0.50;1.00;;;;;;5008817;28;20207;-73
2021/11/23 08:03:30;;;;;;;8.77;5.30;;;-0.40;1.00;;;;;;5008351;28;20499;-73
2021/11/23 08:05:56;;;;;;;6.77;4.97;;;-0.30;1.00;;;;;;5015492;28;20261;-73
2021/11/23 08:08:22;;;;;;;11.65;5.85;;;-0.30;1.00;;;;;;5015446;28;20412;-73
2021/11/23 08:10:48;;;;;;;9.07;5.75;;;;;;;;;;5010086;28;20181;-73
2021/11/23 08:13:16;;;;;;;6.95;4.88;;;-0.20;1.00;;;;;;5015014;28;20565;-74
2021/11/23 08:15:44;;;;;;;7.15;4.80;;;-0.10;1.00;;;;;;5015615;28;20181;-74
2021/11/23 08:18:10;;;;;;;5.60;4.65;;;0.00;1.00;;;;;;5015260;28;20220;-75
2021/11/23 08:20:38;;;;;;;6.28;4.30;;;0.10;1.00;;;;;;5013999;28;20562;-74
2021/11/23 08:23:04;;;;;;;6.75;4.80;;;0.10;1.00;;;;;;5014824;28;20270;-74
2021/11/23 08:25:33;;;;;;;6.87;5.00;;;0.20;1.00;;;;;;5014858;28;20667;-73
2021/11/23 08:27:59;;;;;;;5.63;4.55;;;0.30;1.00;;;;;;5014950;28;20427;-75
2021/11/23 08:30:25;;;;;;;7.32;5.25;;;0.40;1.00;;;;;;5015393;28;20199;-74
2021/11/23 08:32:56;;;;;;;5.70;4.30;;;0.50;1.00;;;;;;5008957;28;20538;-75
2021/11/23 08:35:26;;;;;;;7.85;5.53;;;0.60;1.00;;;;;;5006129;28;20178;-74
2021/11/23 08:38:02;;;;;;;7.00;4.65;;;0.60;1.00;;;;;;5011409;28;20184;-77
2021/11/23 08:40:28;;;;;;;6.53;4.55;;;0.70;1.00;;;;;;5014972;28;20184;-74
2021/11/23 08:42:54;;;;;;;8.90;5.37;;;0.70;1.00;;;;;;5013650;28;20211;-74
2021/11/23 08:45:32;;;;;;;9.70;5.83;;;0.80;1.00;;;;;;5002666;28;20232;-75
2021/11/23 08:48:03;;;;;;;7.30;5.05;;;0.90;1.00;;;;;;5013796;28;20207;-75
2021/11/23 08:50:29;;;;;;;7.47;4.68;;;1.00;1.00;;;;;;5014926;28;20193;-75
2021/11/23 08:53:44;;;;;;;8.03;5.43;;;1.10;1.00;;;;;;5014651;28;20176;-76
2021/11/23 08:56:10;;;;;;;8.63;4.82;;;1.20;1.00;;;;;;5014746;28;20408;-75
2021/11/23 08:59:20;;;;;;;8.77;5.90;;;1.30;1.00;;;;;;5013723;28;20189;-76
2021/11/23 09:02:02;;;;;;;8.55;6.22;;;1.50;1.00;;;;;;5013388;28;20294;-75
2021/11/23 09:04:33;;;;;;;10.70;5.60;;;1.60;1.00;;;;;;5010664;28;20185;-76
2021/11/23 09:07:32;;;;;;;8.18;5.82;;;1.70;1.00;;;;;;5014518;28;20169;-76
2021/11/23 09:09:58;;;;;;;17.33;7.43;;;1.80;1.00;;;;;;5002614;28;20181;-75
2021/11/23 09:12:26;;;;;;;11.63;6.40;;;1.90;1.00;;;;;;5020130;28;20165;-75
2021/11/23 09:15:09;;;;;;;12.07;7.90;;;2.10;1.00;;;;;;5008609;28;20173;-75
2021/11/23 09:18:03;;;;;;;9.68;6.40;;;2.20;1.00;;;;;;4996150;28;20177;-75
2021/11/23 09:20:56;;;;;;;10.85;7.05;;;2.30;1.00;;;;;;5014339;28;20185;-76
2021/11/23 09:23:26;;;;;;;13.30;7.78;;;2.50;1.00;;;;;;4994607;28;20721;-76
2021/11/23 09:25:56;;;;;;;14.05;7.63;;;2.60;1.00;;;;;;4994520;28;20178;-76
2021/11/23 09:28:22;;;;;;;13.65;7.45;;;2.70;1.00;;;;;;5004757;28;20173;-76
2021/11/23 09:30:48;;;;;;;12.83;7.27;;;2.90;1.00;;;;;;5014496;28;20339;-75
2021/11/23 09:33:16;;;;;;;13.45;7.15;;;3.00;1.00;;;;;;5014144;28;20427;-77
2021/11/23 09:36:20;;;;;;;10.20;5.88;;;3.10;1.00;;;;;;5014104;28;20231;-76
2021/11/23 09:39:09;;;;;;;16.02;6.75;;;3.30;1.00;;;;;;5011801;28;20244;-76
2021/11/23 09:41:36;;;;;;;11.93;7.10;;;3.40;1.00;;;;;;5006505;28;20232;-76
2021/11/23 09:44:20;;;;;;;12.88;7.00;;;3.50;1.00;;;;;;5011144;28;20656;-77
2021/11/23 09:46:46;;;;;;;15.98;6.10;;;3.60;1.00;;;;;;4995954;28;20280;-73
2021/11/23 09:49:15;;;;;;;8.80;5.80;;;3.70;1.00;;;;;;5014049;28;20615;-78
2021/11/23 09:51:41;;;;;;;13.18;5.80;;;3.80;1.00;;;;;;5013824;28;20412;-76
2021/11/23 09:54:09;;;;;;;11.45;6.47;;;3.80;1.00;;;;;;5014076;28;20177;-74
2021/11/23 09:56:43;;;;;;;9.90;5.55;;;3.90;1.00;;;;;;5013614;28;20573;-75
2021/11/23 09:59:09;;;;;;;16.35;6.18;;;4.00;1.00;;;;;;5013380;28;20180;-76
2021/11/23 10:01:51;;;;;;;15.70;5.77;;;4.10;1.00;;;;;;5014161;28;20550;-76
2021/11/23 10:04:19;;;;;;;9.55;5.43;;;4.20;1.00;;;;;;5001719;28;20268;-74
2021/11/23 10:07:32;;;;;;;9.93;5.90;;;4.30;1.00;;;;;;5014274;28;20173;-78
2021/11/23 10:10:27;;;;;;;9.90;5.07;;;4.40;1.00;;;;;;5013441;28;20215;-81
2021/11/23 10:16:52;;;;;;;7.53;5.30;;;4.60;1.00;;;;;;5007654;28;20200;-76
2021/11/23 10:19:20;;;;;;;10.20;5.50;;;4.70;1.00;;;;;;4964057;28;20433;-78
2021/11/23 10:21:49;;;;;;;10.17;5.93;;;4.70;1.00;;;;;;4951596;29;20458;-76
2021/11/23 10:24:16;;;;;;;9.90;5.47;;;4.70;1.00;;;;;;4964968;28;20429;-76
2021/11/23 10:27:28;;;;;;;10.30;5.80;;;4.80;1.00;;;;;;4959516;28;20955;-76
2021/11/23 10:30:09;;;;;;;5.53;4.43;;;5.00;1.00;;;;;;4967552;28;20436;-75
2021/11/23 10:32:50;;;;;;;7.60;4.70;;;5.00;1.00;;;;;;4972390;28;21002;-75
2021/11/23 10:35:39;;;;;;;6.30;4.27;;;5.20;1.00;;;;;;4969477;28;20769;-77
2021/11/23 10:38:07;;;;;;;6.23;4.67;;;5.30;1.00;;;;;;4972362;28;20508;-75
2021/11/23 10:40:41;;;;;;;7.00;4.90;;;5.40;1.00;;;;;;4967974;28;20821;-76
2021/11/23 10:43:10;;;;;;;12.63;4.97;;;5.50;1.00;;;;;;4955205;28;20517;-76
2021/11/23 10:45:42;;;;;;;6.37;4.17;;;5.50;1.00;;;;;;4966351;28;20557;-76
2021/11/23 10:48:27;;;;;;;6.00;4.27;;;5.50;1.00;;;;;;4961265;28;20433;-76
2021/11/23 10:51:07;;;;;;;6.67;4.50;;;5.60;1.00;;;;;;4959663;28;20414;-76
2021/11/23 10:53:34;;;;;;;9.83;4.87;;;5.70;1.00;;;;;;4988826;28;20419;-78
2021/11/23 10:56:50;;;;;;;5.00;4.13;;;5.70;1.00;;;;;;5013358;28;20820;-77
2021/11/23 10:59:15;;;;;;;6.40;4.00;;;5.80;1.00;;;;;;5013385;28;20416;-76
2021/11/23 11:01:41;;;;;;;6.20;3.63;;;;;;;;;;5013794;28;20439;-77
2021/11/23 11:04:39;;;;;;;7.13;3.53;;;5.90;1.00;;;;;;5013428;28;20264;-77
2021/11/23 11:10:39;;;;;;;4.80;3.53;;;6.10;1.00;;;;;;5012014;28;20434;-77
2021/11/23 11:13:16;;;;;;;4.57;3.23;;;6.30;1.00;;;;;;5016351;28;20510;-77
2021/11/23 11:15:51;;;;;;;6.53;3.40;;;6.40;1.00;;;;;;4997160;28;20748;-77
2021/11/23 11:18:17;;;;;;;6.83;4.00;;;6.50;1.00;;;;;;5012566;28;20447;-74
2021/11/23 11:20:55;;;;;;;5.83;4.03;;;6.60;1.00;;;;;;5016103;28;20804;-74
2021/11/23 11:23:29;;;;;;;4.87;3.17;;;6.70;1.00;;;;;;5016385;28;20423;-74
2021/11/23 11:28:54;;;;;;;8.03;2.87;;;6.80;1.00;;;;;;5022434;28;20448;-74
2021/11/23 11:31:49;;;;;;;14.03;3.17;;;6.90;1.00;;;;;;5015832;28;20934;-76
2021/11/23 11:34:16;;;;;;;3.73;3.20;;;;;;;;;;5016019;28;20428;-77
2021/11/23 11:37:16;;;;;;;5.60;3.33;;;7.00;1.00;;;;;;5015936;28;20428;-77
2021/11/23 11:39:54;;;;;;;10.30;2.80;;;7.10;1.00;;;;;;5016041;28;20411;-77
2021/11/23 11:42:50;;;;;;;4.30;2.70;;;7.20;1.00;;;;;;5016195;28;20886;-77
2021/11/23 11:45:41;;;;;;;5.20;3.27;;;7.20;1.00;;;;;;5016054;28;20416;-76
2021/11/23 11:48:36;;;;;;;6.23;3.50;;;7.30;1.00;;;;;;5006307;28;20424;-77
2021/11/23 11:51:08;;;;;;;5.57;3.30;;;7.20;1.00;;;;;;5015999;28;20456;-76
2021/11/23 11:53:50;;;;;;;3.40;2.90;;;7.20;1.00;;;;;;5002534;28;20409;-77
2021/11/23 11:56:51;;;;;;;7.20;3.57;;;7.30;1.00;;;;;;5015741;28;20438;-77
2021/11/23 11:59:32;;;;;;;3.97;2.87;;;7.50;1.00;;;;;;5000793;28;20585;-77
2021/11/23 12:02:32;;;;;;;4.37;3.67;;;7.40;1.00;;;;;;5015680;28;20517;-77
2021/11/23 12:05:16;;;;;;;8.60;3.30;;;7.50;1.00;;;;;;5015642;28;20412;-77
2021/11/23 12:07:45;;;;;;;5.33;3.23;;;7.60;1.00;;;;;;5015528;28;20454;-77
2021/11/23 12:10:50;;;;;;;5.70;3.70;;;7.70;1.00;;;;;;5014847;28;20435;-77
2021/11/23 12:13:34;;;;;;;7.83;4.00;;;7.80;1.00;;;;;;5015136;28;20769;-77
2021/11/23 12:16:12;;;;;;;6.33;3.13;;;7.90;1.00;;;;;;5002920;28;20416;-77
2021/11/23 12:18:50;;;;;;;11.13;4.17;;;;;;;;;;5011897;28;20439;-76
2021/11/23 12:21:30;;;;;;;6.77;3.77;;;8.10;1.00;;;;;;5006483;28;20509;-77
2021/11/23 12:23:59;;;;;;;5.73;3.50;;;8.10;1.00;;;;;;5014732;28;20424;-77
2021/11/23 12:26:36;;;;;;;6.33;3.73;;;8.20;1.00;;;;;;5013441;28;20438;-77
2021/11/23 12:29:12;;;;;;;6.37;4.17;;;;;;;;;;5015543;28;20451;-78
2021/11/23 12:31:50;;;;;;;10.87;3.80;;;8.40;1.00;;;;;;5003800;28;20464;-78
2021/11/23 12:34:17;;;;;;;10.67;4.57;;;8.30;1.00;;;;;;5013555;28;20427;-75
2021/11/23 12:36:57;;;;;;;3.33;3.03;;;8.50;1.00;;;;;;5014877;28;20424;-74
2021/11/23 12:39:26;;;;;;;4.23;3.47;;;8.70;1.00;;;;;;5015111;28;20436;-75
2021/11/23 12:42:05;;;;;;;4.50;3.20;;;8.70;1.00;;;;;;5002188;28;20454;-75
2021/11/23 12:44:35;;;;;;;3.50;2.33;;;8.60;1.00;;;;;;5014859;28;20424;-75
2021/11/23 12:47:06;;;;;;;6.63;3.37;;;;;;;;;;5013225;28;20986;-75
2021/11/23 12:49:34;;;;;;;7.83;3.27;;;8.70;1.00;;;;;;5008702;28;20470;-75
2021/11/23 12:52:15;;;;;;;2.47;2.27;;;8.70;1.00;;;;;;5002947;28;20907;-75
2021/11/23 12:54:50;;;;;;;4.60;2.73;;;8.80;1.00;;;;;;5013522;28;20407;-75
2021/11/23 12:57:21;;;;;;;3.67;2.97;;;8.90;1.00;;;;;;5011015;28;20416;-75
2021/11/23 13:00:01;;;;;;;4.50;2.20;;;9.00;1.00;;;;;;5000565;28;20495;-75
2021/11/23 13:02:40;;;;;;;5.80;2.43;;;9.50;1.00;;;;;;5011890;28;20432;-74
2021/11/23 13:05:15;;;;;;;3.30;2.60;;;9.70;1.00;;;;;;5014136;28;20757;-75
2021/11/23 13:08:06;;;;;;;2.57;2.37;;;9.70;1.00;;;;;;5013988;28;20459;-74
2021/11/23 13:10:42;;;;;;;2.30;2.10;;;9.60;1.00;;;;;;5001279;28;20458;-74
2021/11/23 13:13:12;;;;;;;7.90;2.80;;;9.60;1.00;;;;;;5013297;28;20910;-74
2021/11/23 13:15:43;;;;;;;3.87;2.63;;;9.70;1.00;;;;;;5013952;28;20459;-74
2021/11/23 13:18:17;;;;;;;3.50;2.60;;;9.80;1.00;;;;;;5011016;28;20431;-75
2021/11/23 13:20:54;;;;;;;6.77;2.83;;;9.90;1.00;;;;;;5009192;28;20439;-74
2021/11/23 13:23:46;;;;;;;2.67;2.00;;;10.00;1.00;;;;;;5008572;28;20444;-74
2021/11/23 13:26:19;;;;;;;3.17;2.30;;;10.20;1.00;;;;;;5010054;28;20966;-76
2021/11/23 13:29:04;;;;;;;3.17;2.20;;;10.30;1.00;;;;;;5006871;28;20428;-75
2021/11/23 13:31:41;;;;;;;2.70;2.03;;;10.50;1.00;;;;;;5002600;28;20464;-74
2021/11/23 13:34:13;;;;;;;7.00;4.30;;;10.50;1.00;;;;;;5002800;28;20443;-74
2021/11/23 13:36:44;;;;;;;4.83;2.60;;;10.50;1.00;;;;;;5013122;28;20911;-74
2021/11/23 13:39:25;;;;;;;2.30;2.10;;;10.40;1.00;;;;;;5015462;28;20466;-75
2021/11/23 13:41:58;;;;;;;15.43;2.87;;;10.50;1.00;;;;;;5014077;28;20534;-74
2021/11/23 13:44:31;;;;;;;2.73;2.37;;;10.50;1.00;;;;;;5012853;28;20423;-74
2021/11/23 13:47:15;;;;;;;3.13;2.00;;;10.50;1.00;;;;;;5012747;28;20426;-74